Eglin Air Force Base
KVPS : now visible

Airfield :











YOU CAN JOIN US ON...

 
LOGIN :

Register | Disclaimer

   EN    FR    IT 

 









Legend :    VFR   Marginal VFR   IFR   Intensive IFR   Very Intensive IFR
Visi :
Ceiling :
>= 8 km
>= 3000ft
5 to 8 km
1000 to 3000 ft
1500m to 5 km
500 to 1000 ft
800 to 1500m
200 to 500 ft
< 800m
< 200 ft
Symbols :   Thunderstorms  Fog  Heavy snow  Heavy precipitations  Wind > 20 kt






- Airport Elevation : 87 ft
- IATA code : VPS


KVPS - Eglin Air Force Base

CURRENT METAR :
  • 011555Z AUTO 02004KT 9SM OVC004 18/17 A3022 RMK AO2 DZB12E28DZB41E52 SLP240 P0000 T01770172 $

EXPIRED METARs :
  • 011552Z AUTO 02003KT 7SM OVC004 18/17 A3022 RMK AO2 DZB12E28DZB41E52 SLP240 $
  • 011541Z AUTO 33007KT 4SM -DZ BR OVC004 18/18 A3022 RMK AO2 DZB12E28DZB41 SLP240 $
  • 011528Z AUTO 34003KT 5SM BR OVC004 18/17 A3022 RMK AO2 DZB12E28 SLP240 $
  • 011512Z AUTO 00000KT 6SM -DZ OVC004 18/17 A3021 RMK AO2 DZB12 SLP237 $
  • 011455Z AUTO 29003KT 7SM OVC003 18/17 A3020 RMK AO2 SLP233 T01780173 52019 $
  • 011355Z AUTO 34003KT 10SM OVC004 18/17 A3018 RMK AO2 SLP227 T01770172 $
  • 011340Z AUTO 00000KT 10SM OVC004 18/17 A3017 RMK AO2 SLP223 $

TAF AMD TAF KVPS
Valid from the 01 at 13:00 until the 02 at 16:00 UTC


011325Z 0113/0216 35006KT 9999 OVC003 QNH3010INS
BECMG 0116/0117 33006KT 9999 BKN008 QNH3012INS
BECMG 0119/0120 33006KT 9999 BKN010 QNH3012INS
BECMG 0122/0123 03006KT 8000 BR BKN010 QNH3014INS
BECMG 0200/0201 09006KT 4800 BR BKN005 QNH3012INS
BECMG 0201/0202 16003KT 0800 FG VV001 QNH3010INS
BECMG 0209/0210 18006KT 4800 BR BKN003 QNH3009INS
BECMG 0211/0212 12006KT 9999 NSW BKN005 QNH3007INS TX23/0121Z TN16/0210Z
KZJX FIR / North America



MET'MAP, your aeronautical weather chart ! - Copyright ORBIFLY December 2007 - Disclaimer

ORBIFLY MET'MAP TEAM :

Programming & Development : Alexandra Zaïnal
Original concept : Baudouin d'Aumeries
Technical & hardware support : Manuel Goepfert
Assistance : Marc-Olivier Méhu




SOURCES & CREDITS :

   NOAA       Earth
Advisory